Beckett Point, Washington
Current Conditions -  °F | °C
As of 5:56 AM on Thursday 18 Dec 2014 (Local Time) from KNUW Reporting Station
Overcast Overcast  
Wind Chill: 44°   Ceiling: 1200
Heat Index: 48°   Visibility: 8mi
Dew Point: 43°   Wind: 8mph
Humidity: 83%   Direction: 100°E
Pressure: 29.92"   Gusts: NA
Location:  48.026°N, 122.859°W
Report Text: KNUW 181356Z 10007KT 8SM SCT007 BKN012 OVC040 09/06 A2992 RMK AO2 SLP137 T00890061 VISNO E $
Loading
Personal Weather Stations






























Interactive Weather Map New forecast layout! Learn more

10-Day Weather Forecast

Advertisements
Track Severe Weather on mobile